Time;durP1;ratioP1;P1;durP2;ratioP2;P2;SDS_P1;SDS_P2;PMS_P1;PMS_P2;Temp;Humidity;BMP_temperature;BMP_pressure;BME280_temperature;BME280_humidity;BME280_pressure;Samples;Min_cycle;Max_cycle;Signal;HPM_P1;HPM_P2
2022/08/02 02:01:51;;;;;;;;;;;;;;;24.25;74.52;98191.91;4966304;28;19926;-78
2022/08/02 02:04:19;;;;;;;;;;;;;;;24.16;74.09;98189.91;4973805;28;19926;-78
2022/08/02 02:06:48;;;;;;;;;;;;;;;24.08;74.45;98193.66;4975986;28;19937;-78
2022/08/02 02:09:16;;;;;;;;;;;;;;;24.25;72.87;98199.69;4959443;28;20223;-78
2022/08/02 02:11:44;;;;;;;;;;;;;;;24.24;73.57;98203.81;4976202;28;19930;-78
2022/08/02 02:14:12;;;;;;;;;;;;;;;24.22;74.88;98206.38;4976330;28;20230;-78
2022/08/02 02:16:43;;;;;;;;;;;;;;;24.22;75.28;98204.31;4976163;28;20226;-78
2022/08/02 02:19:11;;;;;;;;;;;;;;;24.13;76.73;98208.03;4975339;28;20338;-78
2022/08/02 02:21:38;;;;;;;;;;;;;;;24.16;80.73;98198.50;4976331;28;20252;-78
2022/08/02 02:24:06;;;;;;;;;;;;;;;24.19;82.90;98191.00;4976271;28;19937;-78
2022/08/02 02:26:33;;;;;;;;;;;;;;;24.20;83.21;98186.88;4976558;28;20248;-78
2022/08/02 02:29:03;;;;;;;;;;;;;;;24.17;83.33;98193.56;4975856;28;19937;-78
2022/08/02 02:31:35;;;;;;;;;;;;;;;24.21;83.07;98199.88;4976435;28;19926;-78
2022/08/02 02:34:03;;;;;;;;;;;;;;;24.18;83.11;98192.28;4976671;28;19930;-78
2022/08/02 02:36:32;;;;;;;;;;;;;;;24.17;81.98;98197.22;4975776;28;19933;-78
2022/08/02 02:39:02;;;;;;;;;;;;;;;24.07;84.14;98203.50;4975893;28;19930;-77
2022/08/02 02:41:29;;;;;;;;;;;;;;;24.02;82.51;98207.00;4975997;28;19926;-78
2022/08/02 02:43:58;;;;;;;;;;;;;;;23.98;83.64;98209.28;4975589;28;20200;-78
2022/08/02 02:49:52;;;;;;;;;;;;;;;23.93;86.78;98213.63;4867365;29;19928;-78
2022/08/02 02:52:20;;;;;;;;;;;;;;;23.92;87.83;98216.94;4870508;29;20234;-78
2022/08/02 02:54:49;;;;;;;;;;;;;;;23.88;89.91;98217.16;4878436;29;19939;-78
2022/08/02 02:57:17;;;;;;;;;;;;;;;23.88;89.84;98216.34;4874893;29;19932;-77
2022/08/02 02:59:45;;;;;;;;;;;;;;;23.89;93.39;98226.50;4863444;29;19928;-78
2022/08/02 03:02:13;;;;;;;;;;;;;;;23.97;91.43;98227.69;4867222;29;20322;-78
2022/08/02 03:04:42;;;;;;;;;;;;;;;23.91;92.93;98232.53;4866672;29;19928;-78
2022/08/02 03:07:09;;;;;;;;;;;;;;;23.95;92.56;98233.09;4859434;29;19928;-78
2022/08/02 03:09:37;;;;;;;;;;;;;;;23.97;93.76;98231.34;4871480;29;19928;-77
2022/08/02 03:12:09;;;;;;;;;;;;;;;23.89;95.06;98230.13;4871122;29;21392;-78
2022/08/02 03:14:42;;;;;;;;;;;;;;;23.89;95.22;98237.94;4868800;29;19932;-78
2022/08/02 03:17:10;;;;;;;;;;;;;;;23.91;94.62;98241.88;4868789;29;19928;-78
2022/08/02 03:19:38;;;;;;;;;;;;;;;23.92;94.87;98243.44;4869451;29;19936;-78
2022/08/02 03:22:07;;;;;;;;;;;;;;;23.98;96.09;98250.06;4872415;29;19928;-78
2022/08/02 03:24:34;;;;;;;;;;;;;;;23.89;100.00;98249.38;4879256;29;19935;-78
2022/08/02 03:27:01;;;;;;;;;;;;;;;23.95;100.00;98251.03;4874854;29;19928;-80
2022/08/02 03:29:28;;;;;;;;;;;;;;;23.95;100.00;98247.38;4869263;29;19936;-80
2022/08/02 03:31:58;;;;;;;;;;;;;;;23.93;100.00;98247.88;4866365;29;19928;-79
2022/08/02 03:34:26;;;;;;;;;;;;;;;23.86;100.00;98253.97;4870389;29;19936;-79
2022/08/02 03:36:54;;;;;;;;;;;;;;;23.88;100.00;98253.47;4873022;29;19928;-80
2022/08/02 03:39:22;;;;;;;;;;;;;;;23.80;100.00;98253.06;4880834;29;19959;-80
2022/08/02 03:41:50;;;;;;;;;;;;;;;23.83;100.00;98254.94;4878001;29;20329;-80
2022/08/02 03:44:18;;;;;;;;;;;;;;;23.76;100.00;98261.03;4870511;29;19928;-77
2022/08/02 03:46:46;;;;;;;;;;;;;;;23.61;100.00;98257.34;4872394;29;19928;-77
2022/08/02 03:49:14;;;;;;;;;;;;;;;23.59;100.00;98256.25;4901397;29;19931;-78
2022/08/02 03:51:41;;;;;;;;;;;;;;;23.57;100.00;98259.59;4903063;29;19934;-78
2022/08/02 03:54:08;;;;;;;;;;;;;;;23.52;100.00;98268.84;4903769;29;19928;-78
2022/08/02 03:56:36;;;;;;;;;;;;;;;23.53;100.00;98267.53;4903337;29;20214;-78
2022/08/02 03:59:07;;;;;;;;;;;;;;;23.41;100.00;98263.66;4894630;29;20225;-76
2022/08/02 04:01:34;;;;;;;;;;;;;;;23.44;100.00;98274.13;4903542;29;19927;-78
2022/08/02 04:04:02;;;;;;;;;;;;;;;23.41;100.00;98277.13;4883758;29;20221;-78
2022/08/02 04:06:29;;;;;;;;;;;;;;;23.39;100.00;98282.53;4883173;29;19928;-78
2022/08/02 04:08:56;;;;;;;;;;;;;;;23.25;100.00;98278.31;4883937;29;19938;-78
2022/08/02 04:11:29;;;;;;;;;;;;;;;23.30;100.00;98282.56;4892077;29;19927;-78
2022/08/02 04:14:00;;;;;;;;;;;;;;;23.28;100.00;98282.28;4886597;29;19940;-78
2022/08/02 04:16:41;;;;;;;;;;;;;;;23.18;100.00;98287.22;4884627;29;20289;-78
2022/08/02 04:19:09;;;;;;;;;;;;;;;23.15;100.00;98290.25;4878009;29;20333;-77
2022/08/02 04:21:39;;;;;;;;;;;;;;;23.13;100.00;98287.09;4902862;29;19931;-79
2022/08/02 04:24:08;;;;;;;;;;;;;;;23.18;100.00;98303.56;4902110;29;19942;-77
2022/08/02 04:26:36;;;;;;;;;;;;;;;23.08;100.00;98314.22;4902579;29;19928;-78
2022/08/02 04:29:04;;;;;;;;;;;;;;;23.02;100.00;98321.03;4901193;29;19927;-78
2022/08/02 04:31:32;;;;;;;;;;;;;;;22.97;100.00;98330.25;4888677;29;19928;-78
2022/08/02 04:33:59;;;;;;;;;;;;;;;22.86;100.00;98342.94;4891795;29;20285;-78
2022/08/02 04:36:27;;;;;;;;;;;;;;;22.97;100.00;98345.31;4901950;29;19932;-78
2022/08/02 04:38:54;;;;;;;;;;;;;;;23.04;100.00;98350.66;4902130;29;19932;-77
2022/08/02 04:41:21;;;;;;;;;;;;;;;22.91;100.00;98361.50;4902869;29;19932;-78
2022/08/02 04:43:49;;;;;;;;;;;;;;;23.04;100.00;98358.41;4902435;29;19935;-78
2022/08/02 04:46:16;;;;;;;;;;;;;;;22.95;100.00;98376.38;4878145;29;19931;-78
2022/08/02 04:48:43;;;;;;;;;;;;;;;22.87;100.00;98378.75;4883475;29;19927;-78
2022/08/02 04:51:10;;;;;;;;;;;;;;;22.94;100.00;98389.03;4883021;29;20365;-79
2022/08/02 04:53:38;;;;;;;;;;;;;;;22.79;100.00;98383.19;4884322;29;19939;-78
2022/08/02 04:56:05;;;;;;;;;;;;;;;22.78;100.00;98398.75;4894470;29;20216;-79
2022/08/02 04:58:32;;;;;;;;;;;;;;;22.79;100.00;98396.69;4902513;29;19935;-79
2022/08/02 05:01:07;;;;;;;;;;;;;;;22.75;100.00;98404.59;4901455;29;19931;-78
2022/08/02 05:03:34;;;;;;;;;;;;;;;22.82;100.00;98405.06;4887326;29;19958;-78
2022/08/02 05:06:01;;;;;;;;;;;;;;;22.80;100.00;98413.31;4902043;29;19946;-79
2022/08/02 05:08:28;;;;;;;;;;;;;;;22.78;100.00;98412.22;4887957;29;19927;-79
2022/08/02 05:10:56;;;;;;;;;;;;;;;22.78;100.00;98413.00;4901670;29;19928;-81
2022/08/02 05:13:23;;;;;;;;;;;;;;;22.70;100.00;98420.28;4897637;29;20024;-79
2022/08/02 05:15:50;;;;;;;;;;;;;;;22.71;100.00;98436.13;4866841;29;19935;-80
2022/08/02 05:18:17;;;;;;;;;;;;;;;22.71;100.00;98432.50;4864394;29;19928;-78
2022/08/02 05:20:45;;;;;;;;;;;;;;;22.70;100.00;98440.25;4864854;29;19959;-78
2022/08/02 05:23:12;;;;;;;;;;;;;;;22.68;100.00;98444.84;4864922;29;20356;-78
2022/08/02 05:25:39;;;;;;;;;;;;;;;22.74;100.00;98445.78;4872806;29;19928;-78
2022/08/02 05:28:07;;;;;;;;;;;;;;;22.71;100.00;98450.41;4895222;29;19936;-79
2022/08/02 05:30:37;;;;;;;;;;;;;;;22.77;100.00;98453.38;4895694;29;19931;-80
2022/08/02 05:33:04;;;;;;;;;;;;;;;22.84;100.00;98459.56;4882906;29;19932;-78
2022/08/02 05:35:32;;;;;;;;;;;;;;;22.80;100.00;98461.78;4896434;29;20353;-78
2022/08/02 05:37:59;;;;;;;;;;;;;;;22.81;100.00;98471.91;4887754;29;19927;-78
2022/08/02 05:40:26;;;;;;;;;;;;;;;22.82;100.00;98479.19;4890331;29;19938;-78
2022/08/02 05:42:54;;;;;;;;;;;;;;;22.80;100.00;98483.78;4884429;29;19932;-78
2022/08/02 05:45:22;;;;;;;;;;;;;;;22.86;100.00;98488.38;4887306;29;19935;-78
2022/08/02 05:47:50;;;;;;;;;;;;;;;22.86;100.00;98496.94;4884916;29;20356;-78
2022/08/02 05:50:17;;;;;;;;;;;;;;;22.93;100.00;98507.25;4887562;29;19932;-78
2022/08/02 05:52:48;;;;;;;;;;;;;;;22.83;100.00;98497.09;4892993;29;19943;-78
2022/08/02 05:55:17;;;;;;;;;;;;;;;22.83;100.00;98506.47;4894711;29;19935;-77
2022/08/02 05:58:02;;;;;;;;;;;;;;;22.76;100.00;98508.84;4895765;29;20329;-78
2022/08/02 06:00:31;;;;;;;;;;;;;;;22.84;100.00;98505.19;4885300;29;19935;-78
2022/08/02 06:03:19;;;;;;;;;;;;;;;22.82;100.00;98502.00;4888260;29;19960;-78
2022/08/02 06:05:58;;;;;;;;;;;;;;;22.93;100.00;98509.31;4882949;29;19932;-78
2022/08/02 06:08:45;;;;;;;;;;;;;;;22.94;100.00;98519.47;4882252;29;19935;-78
2022/08/02 06:11:15;;;;;;;;;;;;;;;22.90;100.00;98525.31;4882253;29;19935;-78
2022/08/02 06:13:44;;;;;;;;;;;;;;;23.00;100.00;98529.75;4884191;29;19928;-78
2022/08/02 06:16:12;;;;;;;;;;;;;;;22.93;100.00;98541.47;4886630;29;19935;-78
2022/08/02 06:18:40;;;;;;;;;;;;;;;22.91;100.00;98541.16;4890407;29;20049;-78
2022/08/02 06:21:09;;;;;;;;;;;;;;;22.91;100.00;98540.34;4895499;29;19932;-78
2022/08/02 06:23:40;;;;;;;;;;;;;;;22.94;100.00;98542.28;4889913;29;19932;-78
2022/08/02 06:26:10;;;;;;;;;;;;;;;22.82;100.00;98544.00;4898576;29;19928;-78
2022/08/02 06:28:38;;;;;;;;;;;;;;;22.88;100.00;98550.66;4886706;29;19932;-78
2022/08/02 06:31:05;;;;;;;;;;;;;;;22.85;100.00;98545.91;4899680;29;19928;-77
2022/08/02 06:33:33;;;;;;;;;;;;;;;22.77;100.00;98542.56;4901796;29;20225;-78
2022/08/02 06:36:03;;;;;;;;;;;;;;;22.98;100.00;98538.00;4891156;29;19934;-78
2022/08/02 06:38:39;;;;;;;;;;;;;;;22.88;100.00;98548.59;4881762;29;19928;-78
2022/08/02 06:41:08;;;;;;;;;;;;;;;22.97;100.00;98547.78;4888324;29;19935;-78
2022/08/02 06:43:41;;;;;;;;;;;;;;;23.17;100.00;98544.47;4899420;29;20224;-78
2022/08/02 06:46:08;;;;;;;;;;;;;;;23.15;100.00;98542.09;4883523;29;20329;-77
2022/08/02 06:48:36;;;;;;;;;;;;;;;23.22;100.00;98549.53;4881286;29;20369;-78
2022/08/02 06:51:03;;;;;;;;;;;;;;;23.31;100.00;98543.81;4887091;29;19942;-78
2022/08/02 06:53:31;;;;;;;;;;;;;;;23.31;100.00;98546.66;4891519;29;19927;-78
2022/08/02 06:55:58;;;;;;;;;;;;;;;23.52;100.00;98548.56;4883794;29;19932;-78
2022/08/02 06:58:25;;;;;;;;;;;;;;;23.63;100.00;98539.50;4878406;29;19935;-84
2022/08/02 07:00:53;;;;;;;;;;;;;;;23.69;100.00;98524.09;4886815;29;19928;-78
2022/08/02 07:03:20;;;;;;;;;;;;;;;23.72;100.00;98528.06;4890474;29;20240;-78
2022/08/02 07:05:47;;;;;;;;;;;;;;;23.77;100.00;98553.09;4894305;29;19932;-78
2022/08/02 07:08:17;;;;;;;;;;;;;;;23.94;100.00;98528.63;4883370;29;19928;-78
2022/08/02 07:10:46;;;;;;;;;;;;;;;24.21;100.00;98524.88;4883058;29;19928;-77
2022/08/02 07:13:13;;;;;;;;;;;;;;;24.47;100.00;98523.91;4883960;29;20325;-78
2022/08/02 07:15:41;;;;;;;;;;;;;;;24.38;100.00;98537.47;4886184;29;19927;-81
2022/08/02 07:18:13;;;;;;;;;;;;;;;24.48;100.00;98542.63;4892747;29;19994;-81
2022/08/02 07:20:41;;;;;;;;;;;;;;;24.39;100.00;98547.59;4889276;29;19982;-82
2022/08/02 07:23:08;;;;;;;;;;;;;;;24.44;100.00;98544.88;4896141;29;19989;-81
2022/08/02 07:25:35;;;;;;;;;;;;;;;24.35;100.00;98553.53;4888887;29;19936;-85
2022/08/02 07:28:03;;;;;;;;;;;;;;;24.41;100.00;98556.47;4885062;29;19935;-80
2022/08/02 07:30:31;;;;;;;;;;;;;;;24.24;100.00;98555.31;4885337;29;19947;-80
2022/08/02 07:32:59;;;;;;;;;;;;;;;24.08;100.00;98545.88;4892485;29;19935;-78
2022/08/02 07:35:26;;;;;;;;;;;;;;;24.07;100.00;98563.47;4893812;29;19947;-80
2022/08/02 07:37:54;;;;;;;;;;;;;;;24.03;100.00;98554.28;4887457;29;19935;-77
2022/08/02 07:40:23;;;;;;;;;;;;;;;24.12;100.00;98549.34;4867456;29;19928;-87
2022/08/02 07:42:51;;;;;;;;;;;;;;;24.01;100.00;98551.13;4886939;29;19928;-80
2022/08/02 07:45:20;;;;;;;;;;;;;;;24.00;100.00;98550.31;4881566;29;19932;-76
2022/08/02 07:47:48;;;;;;;;;;;;;;;23.98;100.00;98552.06;4886021;29;20280;-80
2022/08/02 07:50:16;;;;;;;;;;;;;;;24.01;100.00;98557.59;5401408;23;19927;-78
2022/08/02 07:52:44;;;;;;;;;;;;;;;24.01;100.00;98549.03;4932258;29;19938;-76
2022/08/02 07:55:13;;;;;;;;;;;;;;;24.12;100.00;98555.06;4939201;29;19946;-77
2022/08/02 07:57:40;;;;;;;;;;;;;;;24.15;100.00;98534.09;5415632;23;19931;-81
2022/08/02 08:00:13;;;;;;;;;;;;;;;24.46;100.00;98538.66;4934838;29;20378;-81
2022/08/02 08:02:41;;;;;;;;;;;;;;;24.36;100.00;98534.28;5395023;23;19951;-78
2022/08/02 08:05:08;;;;;;;;;;;;;;;24.65;100.00;98525.81;4902857;29;20264;-78
2022/08/02 08:07:35;;;;;;;;;;;;;;;24.79;100.00;98548.81;5386121;23;19939;-76
2022/08/02 08:10:03;;;;;;;;;;;;;;;25.05;100.00;98519.66;4904393;29;19928;-75
2022/08/02 08:12:31;;;;;;;;;;;;;;;25.20;100.00;98537.66;4906690;29;19928;-75
2022/08/02 08:14:58;;;;;;;;;;;;;;;25.46;100.00;98526.47;4898713;29;19928;-74
2022/08/02 08:17:25;;;;;;;;;;;;;;;25.57;100.00;98529.53;4897319;29;19935;-74
2022/08/02 08:19:53;;;;;;;;;;;;;;;25.59;100.00;98513.44;4891377;29;19947;-74
2022/08/02 08:22:21;;;;;;;;;;;;;;;25.86;100.00;98533.19;4903959;29;19954;-73
2022/08/02 08:24:49;;;;;;;;;;;;;;;25.79;100.00;98515.59;5373743;23;19938;-74
2022/08/02 08:27:16;;;;;;;;;;;;;;;25.96;100.00;98525.25;4876129;29;19939;-74
2022/08/02 08:29:44;;;;;;;;;;;;;;;26.05;100.00;98522.28;4873893;29;20416;-74
2022/08/02 08:32:12;;;;;;;;;;;;;;;26.09;100.00;98517.91;4881158;29;19935;-75
2022/08/02 08:34:42;;;;;;;;;;;;;;;26.10;100.00;98522.38;4881416;29;19934;-75
2022/08/02 08:37:10;;;;;;;;;;;;;;;25.95;100.00;98526.53;4878586;29;19932;-75
2022/08/02 08:39:37;;;;;;;;;;;;;;;25.99;98.31;98504.97;4873901;29;19932;-73
2022/08/02 08:42:06;;;;;;;;;;;;;;;26.18;100.00;98514.19;4880792;29;20332;-75
2022/08/02 08:44:34;;;;;;;;;;;;;;;26.28;96.18;98509.09;4871392;29;19931;-74
2022/08/02 08:47:02;;;;;;;;;;;;;;;26.19;97.13;98512.88;4875829;29;19931;-73
2022/08/02 08:49:31;;;;;;;;;;;;;;;26.40;97.67;98519.44;4878346;29;19938;-73
2022/08/02 08:52:02;;;;;;;;;;;;;;;26.49;94.57;98520.09;4873294;29;20206;-75
2022/08/02 08:54:30;;;;;;;;;;;;;;;26.49;94.02;98519.31;4876529;29;19936;-77
2022/08/02 08:56:57;;;;;;;;;;;;;;;26.58;95.87;98516.31;5361979;23;19932;-74
2022/08/02 08:59:24;;;;;;;;;;;;;;;26.55;96.80;98523.84;4876747;29;19939;-74
2022/08/02 09:01:53;;;;;;;;;;;;;;;26.33;93.86;98534.19;5377988;23;19925;-75
2022/08/02 09:04:21;;;;;;;;;;;;;;;26.53;94.14;98523.53;4927154;29;20219;-73
2022/08/02 09:06:48;;;;;;;;;;;;;;;26.74;94.20;98515.75;4927249;29;19939;-78
2022/08/02 09:09:16;;;;;;;;;;;;;;;26.64;92.26;98517.97;4927941;29;19994;-75
2022/08/02 09:11:43;;;;;;;;;;;;;;;26.68;90.86;98523.47;4931510;29;19938;-79
2022/08/02 09:14:43;;;;;;;;;;;;;;;26.82;89.30;98516.13;5342478;23;19928;31
2022/08/02 09:17:11;;;;;;;;;;;;;;;26.91;92.00;98513.09;5412667;23;19934;-77
2022/08/02 09:19:39;;;;;;;;;;;;;;;27.07;95.01;98519.03;4933109;29;19927;-76
2022/08/02 09:22:07;;;;;;;;;;;;;;;27.23;91.67;98526.28;4927327;29;20240;-79
2022/08/02 09:24:44;;;;;;;;;;;;;;;27.28;85.62;98519.81;4934368;29;19935;-75
2022/08/02 09:27:15;;;;;;;;;;;;;;;27.17;89.30;98528.28;4933799;29;19941;-77
2022/08/02 09:29:50;;;;;;;;;;;;;;;27.25;89.71;98526.53;4933276;29;19941;-78
2022/08/02 09:32:44;;;;;;;;;;;;;;;27.33;85.81;98514.13;4926422;29;19931;-80
2022/08/02 09:35:11;;;;;;;;;;;;;;;27.49;85.98;98529.16;4927285;29;19935;-78
2022/08/02 09:37:38;;;;;;;;;;;;;;;27.33;85.25;98522.75;4930575;29;19926;-75
2022/08/02 09:40:07;;;;;;;;;;;;;;;27.60;81.89;98523.53;4927479;29;19927;-74
2022/08/02 09:42:34;;;;;;;;;;;;;;;27.48;83.52;98516.13;4933529;29;20220;-76
2022/08/02 09:45:02;;;;;;;;;;;;;;;27.59;80.24;98508.38;4930129;29;19942;-75
2022/08/02 09:47:30;;;;;;;;;;;;;;;27.67;85.06;98518.13;4924603;29;19927;-81
2022/08/02 09:49:57;;;;;;;;;;;;;;;27.60;80.41;98507.09;4932285;29;19930;-77
2022/08/02 09:52:26;;;;;;;;;;;;;;;27.72;85.60;98502.25;4931204;29;19934;-75
2022/08/02 09:54:54;;;;;;;;;;;;;;;27.78;78.98;98494.47;4926140;29;19927;-75
2022/08/02 09:57:28;;;;;;;;;;;;;;;27.78;83.74;98492.34;4929985;29;19934;-86
2022/08/02 09:59:56;;;;;;;;;;;;;;;27.92;77.07;98494.31;4934661;29;19942;-75
2022/08/02 10:02:24;;;;;;;;;;;;;;;27.93;79.19;98492.22;4936424;29;19926;-76
2022/08/02 10:04:51;;;;;;;;;;;;;;;27.91;81.02;98492.72;4928490;29;19935;-77
2022/08/02 10:07:20;;;;;;;;;;;;;;;27.78;77.71;98483.72;4927838;29;19961;-74
2022/08/02 10:09:49;;;;;;;;;;;;;;;27.74;79.71;98486.06;4930706;29;19931;-77
2022/08/02 10:12:17;;;;;;;;;;;;;;;27.90;77.56;98482.53;4932461;29;19931;-76
2022/08/02 10:14:44;;;;;;;;;;;;;;;28.00;76.92;98483.94;4927455;29;20338;-76
2022/08/02 10:17:12;;;;;;;;;;;;;;;27.87;73.95;98486.44;4931822;29;19935;-76
2022/08/02 10:19:39;;;;;;;;;;;;;;;27.92;77.73;98476.28;4932718;29;19931;-74
2022/08/02 10:22:10;;;;;;;;;;;;;;;28.10;79.25;98472.25;4926190;29;19930;-74
2022/08/02 10:24:39;;;;;;;;;;;;;;;28.07;76.09;98464.66;4928422;29;20480;-84
2022/08/02 10:27:14;;;;;;;;;;;;;;;28.07;76.41;98465.44;5409408;23;20894;-75
2022/08/02 10:29:42;;;;;;;;;;;;;;;28.30;74.79;98467.16;4906782;29;19931;-73
2022/08/02 10:32:10;;;;;;;;;;;;;;;28.34;75.78;98456.19;5396600;23;19927;-75
2022/08/02 10:34:52;;;;;;;;;;;;;;;28.52;76.81;98450.00;4908837;29;19936;-72
2022/08/02 10:37:20;;;;;;;;;;;;;;;28.46;74.30;98451.28;4914778;29;19931;-74
2022/08/02 10:39:53;;;;;;;;;;;;;;;28.55;76.79;98459.69;4911987;29;19951;-74
2022/08/02 10:42:39;;;;;;;;;;;;;;;28.54;71.81;98449.47;4908825;29;20359;-76
2022/08/02 10:45:11;;;;;;;;;;;;;;;28.62;74.20;98459.22;4895778;29;19935;-77
2022/08/02 10:47:38;;;;;;;;;;;;;;;28.58;73.32;98452.91;5416971;23;19927;-76
2022/08/02 10:50:06;;;;;;;;;;;;;;;28.57;73.64;98452.13;4928702;29;19930;-77
2022/08/02 10:52:33;;;;;;;;;;;;;;;28.63;71.77;98449.31;5396828;23;19931;-78
2022/08/02 10:55:10;;;;;;;;;;;;;;;28.73;76.05;98453.53;4898303;29;19928;-76
2022/08/02 10:57:37;;;;;;;;;;;;;;;28.59;76.52;98442.97;5386137;23;19931;-77
2022/08/02 11:00:23;;;;;;;;;;;;;;;28.65;72.34;98461.09;4934559;29;20220;-78
2022/08/02 11:02:50;;;;;;;;;;;;;;;28.72;71.67;98442.53;4934489;29;19931;-76
2022/08/02 11:05:26;;;;;;;;;;;;;;;28.79;75.71;98439.16;4927878;29;19934;-76
2022/08/02 11:07:53;;;;;;;;;;;;;;;28.83;74.27;98440.47;4937904;29;19931;-76
2022/08/02 11:10:31;;;;;;;;;;;;;;;29.01;77.11;98445.75;4935382;29;19926;-77
2022/08/02 11:13:01;;;;;;;;;;;;;;;28.73;71.35;98442.03;4935464;29;19927;-77
2022/08/02 11:15:29;;;;;;;;;;;;;;;28.73;76.84;98432.59;4933403;29;19942;-76
2022/08/02 11:17:59;;;;;;;;;;;;;;;28.92;73.06;98428.72;4926659;29;20088;-77
2022/08/02 11:20:27;;;;;;;;;;;;;;;28.92;69.52;98431.63;4932975;29;19934;-76
2022/08/02 11:23:14;;;;;;;;;;;;;;;28.98;74.34;98437.38;4918772;29;19931;-75
2022/08/02 11:25:42;;;;;;;;;;;;;;;29.00;71.76;98426.91;4930374;29;19927;-77
2022/08/02 11:28:29;;;;;;;;;;;;;;;28.98;74.06;98420.88;4925339;29;20275;-79
2022/08/02 11:31:00;;;;;;;;;;;;;;;28.86;74.32;98427.13;4930697;29;19931;-76
2022/08/02 11:33:31;;;;;;;;;;;;;;;28.97;73.63;98427.97;4930005;29;19939;-75
2022/08/02 11:36:03;;;;;;;;;;;;;;;28.72;71.40;98420.28;4937346;29;19927;-80
2022/08/02 11:38:31;;;;;;;;;;;;;;;28.66;73.16;98421.59;4932045;29;19927;-80
2022/08/02 11:41:02;;;;;;;;;;;;;;;28.92;73.54;98425.06;4917484;29;20180;-80
2022/08/02 11:43:30;;;;;;;;;;;;;;;28.98;74.13;98417.22;4934674;29;19930;-80
2022/08/02 11:46:01;;;;;;;;;;;;;;;29.01;71.49;98411.22;4930809;29;19931;-81
2022/08/02 11:48:29;;;;;;;;;;;;;;;29.06;74.98;98418.28;4930408;29;19938;-82
2022/08/02 11:51:08;;;;;;;;;;;;;;;29.05;77.20;98408.84;4936767;29;19931;-79
2022/08/02 11:53:49;;;;;;;;;;;;;;;29.31;76.53;98423.06;4934680;29;19927;-77
2022/08/02 11:56:18;;;;;;;;;;;;;;;29.19;78.17;98410.75;5419494;23;19935;-81
2022/08/02 11:59:05;;;;;;;;;;;;;;;29.32;76.83;98412.34;5380392;23;19935;-79
2022/08/02 12:01:33;;;;;;;;;;;;;;;29.25;73.62;98407.88;4913043;29;19951;-82
2022/08/02 12:04:01;;;;;;;;;;;;;;;29.36;79.08;98410.78;4912645;29;19939;-77
2022/08/02 12:06:29;;;;;;;;;;;;;;;29.23;75.69;98417.03;4930633;29;19927;-77
2022/08/02 12:09:14;;;;;;;;;;;;;;;29.33;74.75;98419.66;4907371;29;19938;-87
2022/08/02 12:11:42;;;;;;;;;;;;;;;29.22;79.69;98403.94;4916651;29;19938;-80
2022/08/02 12:14:09;;;;;;;;;;;;;;;29.31;71.99;98410.75;4917374;29;20008;-79
2022/08/02 12:22:50;;;;;;;;;;;;;;;29.19;73.59;98412.84;5383732;23;19926;-78
2022/08/02 12:25:18;;;;;;;;;;;;;;;29.12;71.44;98408.38;4951047;28;19934;-76
2022/08/02 12:27:46;;;;;;;;;;;;;;;29.27;75.96;98402.41;5435979;23;20371;-77
2022/08/02 12:30:15;;;;;;;;;;;;;;;29.32;73.00;98401.59;4894908;29;20332;-75
2022/08/02 12:35:44;;;;;;;;;;;;;;;29.38;73.79;98398.72;4875306;29;20294;-77
2022/08/02 12:38:12;;;;;;;;;;;;;;;29.47;73.94;98401.31;5413150;23;19934;-82
2022/08/02 12:40:39;;;;;;;;;;;;;;;29.49;71.75;98393.72;4931180;29;19938;-76
2022/08/02 12:43:15;;;;;;;;;;;;;;;29.33;72.31;98388.75;4951321;28;19952;-75
2022/08/02 12:45:46;;;;;;;;;;;;;;;29.41;75.71;98397.66;4948893;29;19930;-79
2022/08/02 12:48:36;;;;;;;;;;;;;;;29.51;70.86;98387.47;4950353;29;19937;-76
2022/08/02 12:51:24;;;;;;;;;;;;;;;29.52;72.67;98391.91;4953057;29;19934;-80
2022/08/02 12:53:52;;;;;;;;;;;;;;;29.53;78.68;98384.84;4953048;29;19926;-78
2022/08/02 12:56:27;;;;;;;;;;;;;;;29.64;80.21;98391.38;4951673;29;19933;-77
2022/08/02 12:58:54;;;;;;;;;;;;;;;29.65;73.32;98383.50;4949190;29;19931;-77
2022/08/02 13:01:22;;;;;;;;;;;;;;;29.64;75.17;98384.81;4953426;29;19930;-78
2022/08/02 13:04:05;;;;;;;;;;;;;;;29.59;74.55;98389.28;5322256;23;19944;31
2022/08/02 13:06:32;;;;;;;;;;;;;;;29.63;72.58;98384.06;4872584;29;20322;-78
2022/08/02 13:09:13;;;;;;;;;;;;;;;29.53;72.68;98382.75;4880012;29;19935;-79
2022/08/02 13:11:41;;;;;;;;;;;;;;;29.69;73.62;98378.25;4877391;29;21197;-82
2022/08/02 13:14:08;;;;;;;;;;;;;;;29.62;73.51;98373.81;4875839;29;19927;-80
2022/08/02 13:16:35;;;;;;;;;;;;;;;29.71;70.12;98375.66;4878528;29;19928;-79
2022/08/02 13:19:03;;;;;;;;;;;;;;;29.71;68.47;98376.41;4882517;29;19939;-81
2022/08/02 13:21:30;;;;;;;;;;;;;;;29.58;71.85;98366.75;4877281;29;19934;-86
2022/08/02 13:23:57;;;;;;;;;;;;;;;29.59;74.11;98363.34;4880249;29;19932;-83
2022/08/02 13:26:25;;;;;;;;;;;;;;;29.62;76.81;98368.06;4881005;29;20317;-85
2022/08/02 13:28:56;;;;;;;;;;;;;;;29.62;72.42;98367.25;4879626;29;20226;-84
2022/08/02 13:31:24;;;;;;;;;;;;;;;29.62;73.45;98365.19;4878688;29;20179;-87
2022/08/02 13:34:01;;;;;;;;;;;;;;;29.60;75.26;98355.47;4882558;29;19938;-83
2022/08/02 13:36:29;;;;;;;;;;;;;;;29.69;77.24;98358.88;4880222;29;19932;-84
2022/08/02 13:38:56;;;;;;;;;;;;;;;29.76;71.43;98357.56;4874804;29;20225;-77
2022/08/02 13:41:24;;;;;;;;;;;;;;;29.83;73.02;98354.19;4880209;29;19931;-82
2022/08/02 13:43:52;;;;;;;;;;;;;;;29.72;66.87;98351.28;5213069;23;19931;-75
2022/08/02 13:46:22;;;;;;;;;;;;;;;29.64;70.35;98353.09;4931723;29;19931;-76
2022/08/02 13:49:22;;;;;;;;;;;;;;;29.64;72.31;98351.03;5345996;23;19918;31
2022/08/02 13:51:51;;;;;;;;;;;;;;;29.79;75.96;98360.19;4892390;29;20311;-76
2022/08/02 13:54:19;;;;;;;;;;;;;;;29.75;70.63;98356.00;5406648;23;19925;-74
2022/08/02 13:56:46;;;;;;;;;;;;;;;29.78;72.25;98352.09;4894546;29;20321;-77
2022/08/02 14:02:15;;;;;;;;;;;;;;;29.72;71.74;98359.91;4874696;29;19943;-75
2022/08/02 14:04:43;;;;;;;;;;;;;;;29.85;69.02;98352.34;4894820;29;19928;-76
2022/08/02 14:07:11;;;;;;;;;;;;;;;29.71;69.01;98353.38;4877320;29;20197;-78
2022/08/02 14:09:40;;;;;;;;;;;;;;;29.86;75.18;98353.09;4876980;29;19935;-77
2022/08/02 14:12:14;;;;;;;;;;;;;;;29.74;69.59;98352.31;5331666;23;19926;31
2022/08/02 14:14:42;;;;;;;;;;;;;;;29.74;70.54;98345.75;4852907;29;20244;-78
2022/08/02 14:17:10;;;;;;;;;;;;;;;29.80;73.76;98346.56;4857629;29;19935;-75
2022/08/02 14:19:38;;;;;;;;;;;;;;;29.68;67.91;98357.31;4857986;29;19928;-80
2022/08/02 14:22:06;;;;;;;;;;;;;;;29.70;70.68;98342.38;4858261;29;19928;-78
2022/08/02 14:24:33;;;;;;;;;;;;;;;29.70;70.41;98348.94;4860543;29;19944;-76
2022/08/02 14:27:01;;;;;;;;;;;;;;;29.66;71.18;98333.22;4857442;29;20317;-78
2022/08/02 14:29:28;;;;;;;;;;;;;;;29.70;73.52;98339.50;4859533;29;19932;-78
2022/08/02 14:31:56;;;;;;;;;;;;;;;29.67;70.86;98331.88;4858358;29;19938;-75
2022/08/02 14:34:24;;;;;;;;;;;;;;;29.71;71.08;98341.06;4855174;29;20236;-74
2022/08/02 14:40:09;;;;;;;;;;;;;;;29.82;69.32;98341.84;5439748;23;19943;-71
2022/08/02 14:42:36;;;;;;;;;;;;;;;29.72;68.49;98343.41;4933476;29;20575;-72
2022/08/02 14:45:04;;;;;;;;;;;;;;;29.68;68.11;98345.78;4936908;29;19938;-71
2022/08/02 14:47:32;;;;;;;;;;;;;;;29.53;68.18;98342.41;4934155;29;20322;-72
2022/08/02 14:50:00;;;;;;;;;;;;;;;29.58;73.51;98335.06;4933863;29;20227;-72
2022/08/02 14:52:28;;;;;;;;;;;;;;;29.55;74.55;98322.47;4934218;29;19983;-72
2022/08/02 14:54:55;;;;;;;;;;;;;;;29.53;70.67;98338.72;4932755;29;19927;-72
2022/08/02 14:57:23;;;;;;;;;;;;;;;29.55;68.03;98334.00;4936912;29;20316;-72
2022/08/02 14:59:50;;;;;;;;;;;;;;;29.47;70.15;98330.09;4932638;29;19931;-72
2022/08/02 15:02:18;;;;;;;;;;;;;;;29.42;68.53;98330.09;4931664;29;19938;-73
2022/08/02 15:04:45;;;;;;;;;;;;;;;29.46;72.63;98321.97;4933349;29;20220;-72
2022/08/02 15:07:13;;;;;;;;;;;;;;;29.48;73.71;98323.03;4936978;29;19939;-73
2022/08/02 15:09:41;;;;;;;;;;;;;;;29.54;67.26;98323.03;4937127;29;19943;-74
2022/08/02 15:12:09;;;;;;;;;;;;;;;29.58;68.42;98320.66;4935962;29;19934;-72
2022/08/02 15:14:38;;;;;;;;;;;;;;;29.59;67.02;98328.00;4935348;29;19931;-73